Time;durP1;ratioP1;P1;durP2;ratioP2;P2;SDS_P1;SDS_P2;PMS_P1;PMS_P2;Temp;Humidity;BMP_temperature;BMP_pressure;BME280_temperature;BME280_humidity;BME280_pressure;Samples;Min_cycle;Max_cycle;Signal;HPM_P1;HPM_P2
2024/04/09 05:01:33;;;;;;;27.25;4.13;;;17.30;52.90;;;;;;4648577;22;20024;-78
2024/04/09 05:03:34;;;;;;;24.05;4.75;;;17.20;53.20;;;;;;4260290;27;20005;-80
2024/04/09 05:05:38;;;;;;;25.90;4.25;;;17.20;53.40;;;;;;4260192;27;20009;-81
2024/04/09 05:07:39;;;;;;;24.38;4.90;;;17.30;53.00;;;;;;4260469;27;20020;-77
2024/04/09 05:09:43;;;;;;;16.42;4.32;;;17.30;53.00;;;;;;4260218;27;20455;-80
2024/04/09 05:11:45;;;;;;;19.33;4.22;;;17.40;52.20;;;;;;4260262;27;20323;-80
2024/04/09 05:13:48;;;;;;;24.33;4.18;;;17.40;51.90;;;;;;4260331;27;20037;-77
2024/04/09 05:15:49;;;;;;;20.75;4.43;;;17.40;51.40;;;;;;4260079;27;20005;-78
2024/04/09 05:17:56;;;;;;;22.58;5.32;;;17.50;51.50;;;;;;4260020;27;20009;-78
2024/04/09 05:19:57;;;;;;;21.13;4.65;;;17.50;51.10;;;;;;4260105;27;20021;-78
2024/04/09 05:22:01;;;;;;;18.25;4.60;;;17.50;50.90;;;;;;4259688;27;20013;-77
2024/04/09 05:24:02;;;;;;;16.80;3.90;;;17.50;51.00;;;;;;4259658;27;20009;-77
2024/04/09 05:26:05;;;;;;;22.13;4.72;;;17.60;50.90;;;;;;4260102;27;20016;-77
2024/04/09 05:28:06;;;;;;;20.98;4.35;;;17.60;51.40;;;;;;4259947;27;20005;-77
2024/04/09 05:30:11;;;;;;;22.25;5.18;;;17.60;51.90;;;;;;4259969;27;20391;-77
2024/04/09 05:32:12;;;;;;;20.80;4.53;;;17.70;52.40;;;;;;4259878;27;20016;-78
2024/04/09 05:34:18;;;;;;;23.70;4.70;;;17.50;53.80;;;;;;4257439;27;20029;-78
2024/04/09 05:36:19;;;;;;;21.48;4.57;;;17.40;54.90;;;;;;4259606;27;20013;-78
2024/04/09 05:38:23;;;;;;;25.23;4.95;;;17.50;55.40;;;;;;4260652;27;20005;-78
2024/04/09 05:40:24;;;;;;;26.95;5.30;;;17.40;55.40;;;;;;4259634;27;20073;-77
2024/04/09 05:42:28;;;;;;;24.30;5.10;;;17.30;55.80;;;;;;4260190;27;20013;-77
2024/04/09 05:44:29;;;;;;;25.60;5.47;;;17.20;54.70;;;;;;4260946;27;20005;-77
2024/04/09 05:46:32;;;;;;;28.65;4.78;;;17.30;54.60;;;;;;4261489;27;20016;-79
2024/04/09 05:48:33;;;;;;;23.45;4.72;;;17.40;54.80;;;;;;4261495;27;20001;-78
2024/04/09 05:50:39;;;;;;;24.98;5.35;;;17.40;55.10;;;;;;4260396;27;20020;-79
2024/04/09 05:52:40;;;;;;;27.70;4.95;;;17.40;54.70;;;;;;4259949;27;20005;-79
2024/04/09 05:54:46;;;;;;;17.63;4.22;;;17.50;54.50;;;;;;4261180;27;20085;-76
2024/04/09 05:56:47;;;;;;;20.75;5.03;;;17.50;54.50;;;;;;4259441;27;20009;-78
2024/04/09 05:58:52;;;;;;;26.73;5.10;;;17.50;54.70;;;;;;4259629;27;20080;-79
2024/04/09 06:00:53;;;;;;;21.85;4.97;;;17.50;54.50;;;;;;4259156;27;20077;-77
2024/04/09 06:02:56;;;;;;;26.70;4.72;;;17.60;54.30;;;;;;4259390;27;20014;-80
2024/04/09 06:04:59;;;;;;;25.08;4.88;;;17.60;54.30;;;;;;4256803;27;20017;-81
2024/04/09 06:07:06;;;;;;;30.67;4.95;;;17.60;54.60;;;;;;4259822;27;20073;-80
2024/04/09 06:09:08;;;;;;;27.85;5.70;;;17.60;55.00;;;;;;4253156;27;20010;-79
2024/04/09 06:11:12;;;;;;;26.88;4.97;;;17.70;55.00;;;;;;4259236;27;20044;-80
2024/04/09 06:13:13;;;;;;;28.50;5.53;;;17.80;55.10;;;;;;4259462;27;20016;-78
2024/04/09 06:15:16;;;;;;;17.02;4.50;;;17.80;55.10;;;;;;4259343;27;20017;-78
2024/04/09 06:17:17;;;;;;;23.05;5.38;;;17.80;56.30;;;;;;4259513;27;20024;-78
2024/04/09 06:19:21;;;;;;;26.08;5.95;;;17.90;57.10;;;;;;4259349;27;20332;-77
2024/04/09 06:21:22;;;;;;;24.67;5.63;;;17.90;57.30;;;;;;4259322;27;20012;-79
2024/04/09 06:23:28;;;;;;;25.40;5.35;;;18.00;57.30;;;;;;4259268;27;20020;-79
2024/04/09 06:25:29;;;;;;;32.72;5.95;;;18.00;57.20;;;;;;4256794;27;20010;-78
2024/04/09 06:27:32;;;;;;;24.88;5.32;;;17.90;57.00;;;;;;4259271;27;20016;-78
2024/04/09 06:29:34;;;;;;;22.73;5.50;;;17.80;57.40;;;;;;4258996;27;20005;-78
2024/04/09 06:31:37;;;;;;;22.92;4.97;;;17.80;57.60;;;;;;4259355;27;20054;-78
2024/04/09 06:33:40;;;;;;;25.85;5.72;;;17.90;58.10;;;;;;4259355;27;20009;-77
2024/04/09 06:35:43;;;;;;;27.10;5.53;;;18.00;58.10;;;;;;4259495;27;20049;-77
2024/04/09 06:37:44;;;;;;;28.83;5.63;;;18.00;57.30;;;;;;4256950;27;20017;-76
2024/04/09 06:39:50;;;;;;;26.95;5.18;;;18.00;57.20;;;;;;4259498;27;20009;-77
2024/04/09 06:41:51;;;;;;;24.10;5.30;;;18.10;55.80;;;;;;4259272;27;20339;-78
2024/04/09 06:43:55;;;;;;;20.83;4.85;;;18.20;55.50;;;;;;4259581;27;20013;-78
2024/04/09 06:45:56;;;;;;;20.50;4.32;;;18.20;55.10;;;;;;4259319;27;20354;-79
2024/04/09 06:47:59;;;;;;;27.50;5.15;;;18.30;54.90;;;;;;4258061;27;20009;-78
2024/04/09 06:50:04;;;;;;;28.25;5.55;;;18.30;55.00;;;;;;4259082;27;20005;-77
2024/04/09 06:52:08;;;;;;;25.23;5.63;;;18.40;54.60;;;;;;4259162;27;20431;-78
2024/04/09 06:54:09;;;;;;;30.58;5.90;;;18.40;55.00;;;;;;4258986;27;20110;-77
2024/04/09 06:56:15;;;;;;;23.98;5.07;;;18.50;55.70;;;;;;4258997;27;20005;-77
2024/04/09 06:58:18;;;;;;;27.38;4.95;;;18.50;55.40;;;;;;4257760;27;20024;-77
2024/04/09 07:00:21;;;;;;;21.00;4.32;;;18.60;55.10;;;;;;4259104;27;20020;-78
2024/04/09 07:02:22;;;;;;;20.92;5.10;;;18.60;54.80;;;;;;4258704;27;20005;-79
2024/04/09 07:04:26;;;;;;;23.73;4.70;;;18.60;55.40;;;;;;4258897;27;20020;-79
2024/04/09 07:06:27;;;;;;;30.13;6.53;;;18.60;55.40;;;;;;4257273;27;20016;-76
2024/04/09 07:08:31;;;;;;;25.25;4.57;;;18.70;55.70;;;;;;4256325;27;20016;-79
2024/04/09 07:10:32;;;;;;;21.17;4.40;;;18.70;55.80;;;;;;4256595;27;20005;-78
2024/04/09 07:12:38;;;;;;;23.05;4.68;;;18.70;55.80;;;;;;4256621;27;20000;-76
2024/04/09 07:14:39;;;;;;;18.77;4.47;;;18.70;56.30;;;;;;4256241;27;20017;-74
2024/04/09 07:16:43;;;;;;;19.30;3.50;;;18.70;56.30;;;;;;4256638;27;20085;-78
2024/04/09 07:18:44;;;;;;;14.30;3.25;;;18.70;56.90;;;;;;4255937;27;20015;-78
2024/04/09 07:20:50;;;;;;;14.00;3.05;;;18.50;58.00;;;;;;4256314;27;20447;-76
2024/04/09 07:22:51;;;;;;;18.23;3.20;;;18.50;58.00;;;;;;4256705;27;20017;-76
2024/04/09 07:25:04;;;;;;;18.80;2.92;;;18.40;58.30;;;;;;4252156;27;20024;-77
2024/04/09 07:27:12;;;;;;;17.45;3.80;;;18.30;59.50;;;;;;4256530;27;20009;-76
2024/04/09 07:29:20;;;;;;;13.43;3.28;;;18.40;59.20;;;;;;4260249;27;20058;-79
2024/04/09 07:31:22;;;;;;;14.48;2.88;;;18.50;59.30;;;;;;4256644;27;20451;-77
2024/04/09 07:33:28;;;;;;;12.77;2.72;;;18.40;59.70;;;;;;4253463;27;20028;-76
2024/04/09 07:35:30;;;;;;;13.00;2.80;;;18.40;60.20;;;;;;4256276;27;20017;-76
2024/04/09 07:37:34;;;;;;;11.07;2.58;;;18.50;60.90;;;;;;4256076;27;20374;-78
2024/04/09 07:39:36;;;;;;;12.65;2.83;;;18.30;61.40;;;;;;4255871;27;20009;-76
2024/04/09 07:41:39;;;;;;;12.30;2.33;;;18.40;62.20;;;;;;4256080;27;20053;-78
2024/04/09 07:43:40;;;;;;;15.35;2.60;;;18.40;62.10;;;;;;4256029;27;20013;-77
2024/04/09 07:45:46;;;;;;;14.05;2.28;;;18.30;62.60;;;;;;4256237;27;20097;-78
2024/04/09 07:47:49;;;;;;;14.40;2.42;;;18.40;62.30;;;;;;4255776;27;20009;-77
2024/04/09 07:49:53;;;;;;;11.60;2.03;;;18.30;62.60;;;;;;4256075;27;20069;-76
2024/04/09 07:51:54;;;;;;;11.05;2.35;;;18.20;62.60;;;;;;4255323;27;20009;-77
2024/04/09 07:53:57;;;;;;;14.98;2.70;;;18.20;62.60;;;;;;4256321;27;20089;-77
2024/04/09 07:56:02;;;;;;;8.93;2.20;;;18.20;62.70;;;;;;4258865;27;20013;-79
2024/04/09 07:58:07;;;;;;;12.07;2.50;;;18.20;63.10;;;;;;4259876;27;20009;-76
2024/04/09 08:00:14;;;;;;;8.10;1.95;;;18.20;63.70;;;;;;4261965;27;20020;-77
2024/04/09 08:02:20;;;;;;;14.07;2.33;;;18.20;63.30;;;;;;4261238;27;20009;-78
2024/04/09 08:04:21;;;;;;;13.00;2.30;;;18.10;63.80;;;;;;4261135;27;20010;-77
2024/04/09 08:06:27;;;;;;;10.60;2.45;;;18.00;64.30;;;;;;4261156;27;20015;-75
2024/04/09 08:08:29;;;;;;;9.63;2.47;;;17.90;65.00;;;;;;4260822;27;20019;-79
2024/04/09 08:10:32;;;;;;;8.82;2.17;;;17.90;65.80;;;;;;4258638;27;20013;-78
2024/04/09 08:12:33;;;;;;;10.15;1.90;;;17.70;66.10;;;;;;4258630;27;20009;-77
2024/04/09 08:14:34;;;;;;;10.63;2.28;;;17.70;66.40;;;;;;4259070;27;20009;-77
2024/04/09 08:16:38;;;;;;;12.35;2.25;;;17.70;67.00;;;;;;4260273;27;20042;-79
2024/04/09 08:18:42;;;;;;;9.57;2.33;;;17.60;67.20;;;;;;4259167;27;20447;-79
2024/04/09 08:20:46;;;;;;;10.32;2.33;;;17.60;68.20;;;;;;4256821;27;20053;-75
2024/04/09 08:22:49;;;;;;;7.97;1.65;;;17.50;70.00;;;;;;4259739;27;20546;-78
2024/04/09 08:24:50;;;;;;;6.68;1.40;;;17.10;71.80;;;;;;4259992;27;20041;-77
2024/04/09 08:26:54;;;;;;;9.07;1.80;;;16.90;72.70;;;;;;4261045;27;20013;-77
2024/04/09 08:28:57;;;;;;;8.82;1.70;;;16.80;73.50;;;;;;4260853;27;20411;-79
2024/04/09 08:31:11;;;;;;;6.22;1.30;;;16.70;75.00;;;;;;4257739;27;20335;-78
2024/04/09 08:33:12;;;;;;;4.35;0.90;;;16.50;76.30;;;;;;4256404;27;20013;-79
2024/04/09 08:35:19;;;;;;;3.05;1.00;;;16.50;76.40;;;;;;4256893;27;20024;-81
2024/04/09 08:37:20;;;;;;;6.53;1.00;;;15.90;77.70;;;;;;4257618;27;20010;-78
2024/04/09 08:39:24;;;;;;;3.75;0.80;;;15.40;79.10;;;;;;4257470;27;20013;-79
2024/04/09 08:41:27;;;;;;;3.67;0.70;;;15.30;79.90;;;;;;4257827;27;20028;-77
2024/04/09 08:43:33;;;;;;;2.60;0.50;;;15.00;78.90;;;;;;4258221;27;20009;-78
2024/04/09 08:45:36;;;;;;;2.78;0.40;;;14.70;78.90;;;;;;4259748;27;20009;-78
2024/04/09 08:47:41;;;;;;;1.70;0.50;;;14.50;77.70;;;;;;4257137;27;20032;-76
2024/04/09 08:49:43;;;;;;;5.25;1.13;;;14.40;77.30;;;;;;4258280;27;20021;-75
2024/04/09 08:51:49;;;;;;;3.95;0.77;;;14.00;75.50;;;;;;4258117;27;20467;-76
2024/04/09 08:53:50;;;;;;;5.68;0.55;;;13.60;74.00;;;;;;4255574;27;20010;-79
2024/04/09 08:55:55;;;;;;;2.72;0.47;;;13.40;73.30;;;;;;4232403;27;20029;-78
2024/04/09 08:57:56;;;;;;;0.77;0.20;;;13.30;73.60;;;;;;4236027;27;20025;-77
2024/04/09 09:00:00;;;;;;;1.33;0.32;;;13.40;73.60;;;;;;4233886;27;20010;-77
2024/04/09 09:02:03;;;;;;;0.68;0.17;;;13.10;74.20;;;;;;4231097;27;20006;-76
2024/04/09 09:04:07;;;;;;;2.15;0.20;;;13.10;74.30;;;;;;4233016;27;20026;-77
2024/04/09 09:06:09;;;;;;;1.35;0.20;;;13.10;75.20;;;;;;4231678;27;20020;-76
2024/04/09 09:08:15;;;;;;;2.55;0.43;;;13.10;75.10;;;;;;4232777;27;20359;-77
2024/04/09 09:10:17;;;;;;;2.53;0.30;;;13.00;75.60;;;;;;4230684;27;20024;-76
2024/04/09 09:12:21;;;;;;;2.17;0.30;;;13.00;75.90;;;;;;4233185;27;20356;-76
2024/04/09 09:14:22;;;;;;;1.08;0.25;;;13.00;76.00;;;;;;4231726;27;20024;-77
2024/04/09 09:16:25;;;;;;;2.15;0.15;;;13.20;74.90;;;;;;4243638;27;20402;-76
2024/04/09 09:18:27;;;;;;;2.65;0.28;;;13.10;74.40;;;;;;4258878;27;20352;-77
2024/04/09 09:20:30;;;;;;;2.05;0.30;;;13.00;73.90;;;;;;4258318;27;20018;-78
2024/04/09 09:22:36;;;;;;;5.25;0.40;;;13.10;73.90;;;;;;4259304;27;20024;-77
2024/04/09 09:24:42;;;;;;;0.32;0.10;;;13.00;74.20;;;;;;4259041;27;20021;-76
2024/04/09 09:26:43;;;;;;;3.30;0.40;;;13.10;74.70;;;;;;4259690;27;20009;-78
2024/04/09 09:28:46;;;;;;;1.63;0.22;;;13.10;74.90;;;;;;4259351;27;20013;-77
2024/04/09 09:30:48;;;;;;;3.08;0.50;;;13.20;74.10;;;;;;4260700;27;20024;-75
2024/04/09 09:32:52;;;;;;;5.07;2.45;;;13.20;72.90;;;;;;4260927;27;20093;-76
2024/04/09 09:34:54;;;;;;;3.42;0.30;;;12.90;73.00;;;;;;4260301;27;20451;-75
2024/04/09 09:37:00;;;;;;;2.22;0.40;;;12.90;74.20;;;;;;4260515;27;20344;-76
2024/04/09 09:39:01;;;;;;;;;;;12.80;73.40;;;;;;4260185;27;20037;-77
2024/04/09 09:41:09;;;;;;;2.75;0.30;;;12.80;73.40;;;;;;4260033;27;19936;-78
2024/04/09 09:43:10;;;;;;;3.22;0.65;;;12.70;73.10;;;;;;4263913;27;20024;-77
2024/04/09 09:45:14;;;;;;;4.30;0.38;;;12.70;71.40;;;;;;4259756;27;20020;-77
2024/04/09 09:47:16;;;;;;;1.65;0.45;;;12.70;70.20;;;;;;4260174;27;20447;-75
2024/04/09 09:49:21;;;;;;;1.50;0.30;;;12.60;70.80;;;;;;4261875;27;20012;-75
2024/04/09 09:51:22;;;;;;;1.45;0.20;;;12.50;71.30;;;;;;4269013;27;20020;-75
2024/04/09 09:53:26;;;;;;;2.72;0.30;;;12.50;71.60;;;;;;4272272;27;20013;-78
2024/04/09 09:55:29;;;;;;;3.15;0.40;;;12.50;70.70;;;;;;4272900;27;20023;-75
2024/04/09 09:57:37;;;;;;;2.40;0.45;;;12.40;71.40;;;;;;4271653;27;20005;-77
2024/04/09 09:59:46;;;;;;;1.85;0.40;;;12.50;72.60;;;;;;4272811;27;20013;-78
2024/04/09 10:01:53;;;;;;;0.63;0.20;;;12.60;71.30;;;;;;4270764;27;20033;-78
2024/04/09 10:03:54;;;;;;;2.22;0.30;;;12.60;71.10;;;;;;4269917;27;20063;-77
2024/04/09 10:06:00;;;;;;;0.65;0.25;;;12.40;71.40;;;;;;4269206;27;20028;-77
2024/04/09 10:08:01;;;;;;;;;;;12.40;72.10;;;;;;4271523;27;20001;-79
2024/04/09 10:10:06;;;;;;;2.50;0.38;;;12.50;71.30;;;;;;4267182;27;19937;-78
2024/04/09 10:12:18;;;;;;;2.13;0.70;;;12.60;71.00;;;;;;4268299;27;20016;-75
2024/04/09 10:14:27;;;;;;;1.48;0.40;;;12.50;71.00;;;;;;4241498;28;20006;-74
2024/04/09 10:16:28;;;;;;;2.28;0.40;;;12.50;70.90;;;;;;4242746;27;20016;-73
2024/04/09 10:18:37;;;;;;;0.20;0.10;;;12.40;70.40;;;;;;4244842;27;20006;-77
2024/04/09 10:20:38;;;;;;;1.73;0.50;;;12.50;70.20;;;;;;4245400;27;20002;-75
2024/04/09 10:22:46;;;;;;;1.50;0.20;;;12.50;70.90;;;;;;4242171;27;20013;-78
2024/04/09 10:24:51;;;;;;;2.08;0.30;;;12.60;70.60;;;;;;4240088;27;20021;-74
2024/04/09 10:26:56;;;;;;;1.65;0.35;;;12.60;70.60;;;;;;4236604;27;20025;-75
2024/04/09 10:29:04;;;;;;;1.17;0.32;;;12.60;70.90;;;;;;4234832;27;20010;-78
2024/04/09 10:31:13;;;;;;;2.78;0.30;;;12.60;70.50;;;;;;4233928;27;20006;-75
2024/04/09 10:33:14;;;;;;;0.95;0.20;;;12.60;71.40;;;;;;4233910;27;20086;-77
2024/04/09 10:35:18;;;;;;;1.15;0.35;;;12.60;70.30;;;;;;4259500;27;20017;-74
2024/04/09 10:37:20;;;;;;;0.57;0.10;;;12.70;69.50;;;;;;4260257;27;20005;-78
2024/04/09 10:39:24;;;;;;;0.85;0.20;;;12.70;69.00;;;;;;4259449;27;20028;-78
2024/04/09 10:41:25;;;;;;;3.10;0.50;;;12.50;69.70;;;;;;4265228;27;20005;-76
2024/04/09 10:43:30;;;;;;;1.50;0.40;;;12.50;69.90;;;;;;4268868;27;20062;-76
2024/04/09 10:45:31;;;;;;;1.10;0.30;;;12.60;70.00;;;;;;4260227;27;20009;-77
2024/04/09 10:47:38;;;;;;;1.52;0.20;;;12.70;70.10;;;;;;4259937;27;20009;-78
2024/04/09 10:49:38;;;;;;;1.40;0.40;;;12.60;69.50;;;;;;4245516;27;20344;-77
2024/04/09 10:51:42;;;;;;;1.25;0.30;;;12.60;70.60;;;;;;4258360;27;20027;-78
2024/04/09 10:53:43;;;;;;;1.02;0.20;;;12.70;69.50;;;;;;4258989;27;20001;-77
2024/04/09 10:55:47;;;;;;;1.55;0.30;;;12.60;70.70;;;;;;4259576;27;20009;-76
2024/04/09 10:57:51;;;;;;;0.90;0.30;;;12.70;70.80;;;;;;4259121;27;20037;-78
2024/04/09 10:59:55;;;;;;;1.15;0.30;;;12.70;70.30;;;;;;4257746;27;20013;-78
2024/04/09 11:01:56;;;;;;;0.68;0.20;;;12.60;70.50;;;;;;4258284;27;20457;-76
2024/04/09 11:04:03;;;;;;;1.25;0.30;;;12.40;70.70;;;;;;4258555;27;20049;-79
2024/04/09 11:06:04;;;;;;;1.17;0.43;;;12.50;70.90;;;;;;4258415;27;20009;-78
2024/04/09 11:08:10;;;;;;;0.57;0.20;;;12.40;71.40;;;;;;4258965;27;20013;-79
2024/04/09 11:10:14;;;;;;;0.52;0.20;;;12.30;71.30;;;;;;4258472;27;20020;-78
2024/04/09 11:12:18;;;;;;;1.13;0.32;;;12.30;71.90;;;;;;4258466;27;20028;-77
2024/04/09 11:14:19;;;;;;;1.00;0.28;;;12.30;71.80;;;;;;4258371;27;20444;-77
2024/04/09 11:16:22;;;;;;;0.55;0.20;;;12.30;70.60;;;;;;4257925;27;20532;-78
2024/04/09 11:18:24;;;;;;;0.75;0.22;;;12.20;70.50;;;;;;4258439;27;20009;-78
2024/04/09 11:20:31;;;;;;;0.35;0.17;;;12.30;71.00;;;;;;4258444;27;20001;-76
2024/04/09 11:22:32;;;;;;;1.55;0.25;;;12.40;69.70;;;;;;4258802;27;20005;-76
2024/04/09 11:24:38;;;;;;;1.52;0.30;;;12.30;70.60;;;;;;4242185;27;20013;-76
2024/04/09 11:26:41;;;;;;;3.08;0.30;;;12.40;70.30;;;;;;4232345;27;20013;-77
2024/04/09 11:28:52;;;;;;;1.35;0.30;;;12.20;70.10;;;;;;4232378;27;20010;-76
2024/04/09 11:30:55;;;;;;;1.20;0.20;;;12.10;70.20;;;;;;4232175;27;20021;-77
2024/04/09 11:32:59;;;;;;;0.98;0.20;;;11.90;71.00;;;;;;4231336;27;20409;-77
2024/04/09 11:35:00;;;;;;;0.35;0.10;;;11.70;71.80;;;;;;4232183;27;20341;-76
2024/04/09 11:37:06;;;;;;;0.95;0.20;;;11.80;71.60;;;;;;4231747;27;20010;-78
2024/04/09 11:39:08;;;;;;;1.02;0.25;;;11.90;70.60;;;;;;4252150;27;20059;-77
2024/04/09 11:41:13;;;;;;;1.90;0.32;;;12.10;71.70;;;;;;4257991;27;20027;-76
2024/04/09 11:43:14;;;;;;;;;;;11.90;72.30;;;;;;4258442;27;20017;-78
2024/04/09 11:45:22;;;;;;;1.23;0.20;;;11.70;73.20;;;;;;4258016;27;19936;-76
2024/04/09 11:47:23;;;;;;;0.80;0.20;;;11.80;73.20;;;;;;4257883;27;20013;-79
2024/04/09 11:49:26;;;;;;;0.77;0.20;;;11.70;74.30;;;;;;4257896;27;20010;-78
2024/04/09 11:51:27;;;;;;;0.98;0.30;;;11.80;74.50;;;;;;4257785;27;20114;-80
2024/04/09 11:53:34;;;;;;;1.42;0.20;;;11.50;74.90;;;;;;4258002;27;20028;-79
2024/04/09 11:55:35;;;;;;;0.80;0.17;;;11.50;75.60;;;;;;4257597;27;20462;-77
2024/04/09 11:57:40;;;;;;;0.45;0.20;;;11.40;74.00;;;;;;4257908;27;20014;-77
2024/04/09 11:59:41;;;;;;;0.80;0.17;;;11.30;73.90;;;;;;4257618;27;20009;-78
2024/04/09 12:01:44;;;;;;;0.90;0.20;;;11.30;73.80;;;;;;4257692;27;20484;-80
2024/04/09 12:03:45;;;;;;;1.75;0.30;;;11.20;73.60;;;;;;4257526;27;20009;-78
2024/04/09 12:05:49;;;;;;;1.50;0.28;;;11.30;74.10;;;;;;4256254;27;20009;-77
2024/04/09 12:07:50;;;;;;;1.10;0.28;;;11.20;73.60;;;;;;4257527;27;20009;-79
2024/04/09 12:09:56;;;;;;;0.52;0.13;;;11.20;74.50;;;;;;4257755;27;20388;-79
2024/04/09 12:11:57;;;;;;;1.38;0.30;;;11.20;74.10;;;;;;4257691;27;20009;-78
2024/04/09 12:14:01;;;;;;;1.08;0.28;;;11.20;73.80;;;;;;4257169;27;20041;-78
2024/04/09 12:16:02;;;;;;;0.70;0.25;;;11.40;73.60;;;;;;4257505;27;20037;-75
2024/04/09 12:18:06;;;;;;;1.55;0.20;;;11.30;74.40;;;;;;4257291;27;20027;-77
2024/04/09 12:20:08;;;;;;;0.93;0.20;;;11.30;74.50;;;;;;4257226;27;20014;-79
2024/04/09 12:22:14;;;;;;;0.65;0.20;;;11.30;74.80;;;;;;4257643;27;20023;-76
2024/04/09 12:24:17;;;;;;;1.38;0.30;;;11.30;74.20;;;;;;4257391;27;20096;-78
2024/04/09 12:26:21;;;;;;;0.88;0.22;;;11.30;74.80;;;;;;4255317;27;20013;-77
2024/04/09 12:28:24;;;;;;;0.52;0.20;;;11.20;75.00;;;;;;4257128;27;20005;-79
2024/04/09 12:30:26;;;;;;;1.60;0.20;;;11.30;75.60;;;;;;4256267;27;20001;-77
2024/04/09 12:32:29;;;;;;;1.02;0.30;;;11.30;75.10;;;;;;4257851;27;20009;-76
2024/04/09 12:34:31;;;;;;;1.50;0.20;;;11.30;75.20;;;;;;4258085;27;20012;-78
2024/04/09 12:36:34;;;;;;;0.85;0.30;;;11.30;74.90;;;;;;4260184;27;20006;-76
2024/04/09 12:38:35;;;;;;;1.27;0.30;;;11.30;74.90;;;;;;4261189;27;20013;-76
2024/04/09 12:40:39;;;;;;;0.65;0.20;;;11.40;74.30;;;;;;4257536;27;20009;-75
2024/04/09 12:42:43;;;;;;;1.10;0.30;;;11.30;75.10;;;;;;4257359;27;20013;-76
2024/04/09 12:44:46;;;;;;;1.48;0.15;;;11.30;75.20;;;;;;4257634;27;20336;-76
2024/04/09 12:46:47;;;;;;;2.50;0.30;;;11.30;75.60;;;;;;4260015;27;20001;-77
2024/04/09 12:48:51;;;;;;;0.45;0.10;;;11.00;74.60;;;;;;4260139;27;20016;-79
2024/04/09 12:50:52;;;;;;;0.75;0.10;;;10.90;76.00;;;;;;4260520;27;20009;-80
2024/04/09 12:52:55;;;;;;;1.30;0.30;;;10.80;76.70;;;;;;4260190;27;20366;-78
2024/04/09 12:54:56;;;;;;;1.42;0.38;;;10.90;77.20;;;;;;4260210;27;20012;-76
2024/04/09 12:57:00;;;;;;;6.50;2.70;;;10.70;77.90;;;;;;4260298;27;20459;-76
2024/04/09 12:59:05;;;;;;;0.40;0.17;;;10.80;78.00;;;;;;4260180;27;20020;-76
2024/04/09 13:01:09;;;;;;;4.68;1.55;;;10.90;77.80;;;;;;4259955;27;20077;-77
2024/04/09 13:03:10;;;;;;;1.75;0.30;;;11.00;77.80;;;;;;4260113;27;20016;-77
2024/04/09 13:05:16;;;;;;;1.27;0.52;;;11.00;77.90;;;;;;4234065;27;20014;-78
2024/04/09 13:07:17;;;;;;;0.70;0.25;;;10.90;77.90;;;;;;4233703;27;20013;-76
2024/04/09 13:09:21;;;;;;;0.73;0.22;;;10.90;78.20;;;;;;4233734;27;20006;-78
2024/04/09 13:11:23;;;;;;;0.80;0.20;;;10.90;78.20;;;;;;4233679;27;20010;-75
2024/04/09 13:13:27;;;;;;;1.17;0.15;;;10.80;78.60;;;;;;4238157;27;20006;-79
2024/04/09 13:15:31;;;;;;;1.35;0.10;;;10.80;76.50;;;;;;4257826;27;20005;-79
2024/04/09 13:17:35;;;;;;;1.00;0.43;;;10.80;76.10;;;;;;4257426;27;20017;-80
2024/04/09 13:19:36;;;;;;;0.60;0.17;;;10.80;76.50;;;;;;4257609;27;20332;-78
2024/04/09 13:21:40;;;;;;;0.57;0.30;;;10.60;76.70;;;;;;4257853;27;20048;-78
2024/04/09 13:23:41;;;;;;;1.50;0.40;;;10.60;76.80;;;;;;4257866;27;20017;-80
2024/04/09 13:25:42;;;;;;;0.95;0.43;;;10.50;76.30;;;;;;4257421;27;20019;-77
2024/04/09 13:27:46;;;;;;;0.90;0.30;;;10.40;76.20;;;;;;4257643;27;20342;-77
2024/04/09 13:29:47;;;;;;;2.15;0.35;;;10.40;75.60;;;;;;4260014;27;20028;-77
2024/04/09 13:31:50;;;;;;;1.65;0.40;;;10.50;76.10;;;;;;4259025;27;20017;-79
2024/04/09 13:33:54;;;;;;;2.42;0.60;;;10.50;74.90;;;;;;4258106;27;20009;-79
2024/04/09 13:35:55;;;;;;;2.35;0.90;;;10.60;74.50;;;;;;4257574;27;20454;-77
2024/04/09 13:37:58;;;;;;;1.10;0.40;;;10.70;73.60;;;;;;4257413;27;20005;-79
2024/04/09 13:39:59;;;;;;;1.85;0.30;;;10.70;73.00;;;;;;4257439;27;20021;-79
2024/04/09 13:42:03;;;;;;;0.90;0.30;;;10.70;73.10;;;;;;4257698;27;20037;-79
2024/04/09 13:44:05;;;;;;;1.48;0.40;;;10.70;72.20;;;;;;4257199;27;20017;-80
2024/04/09 13:46:08;;;;;;;0.75;0.20;;;10.70;72.40;;;;;;4257392;27;20449;-80
2024/04/09 13:48:12;;;;;;;1.35;0.40;;;10.50;71.70;;;;;;4257257;27;20012;-80
2024/04/09 13:50:16;;;;;;;1.58;0.30;;;10.50;72.50;;;;;;4257099;27;20440;-80
2024/04/09 13:52:17;;;;;;;2.03;0.50;;;10.60;72.20;;;;;;4257290;27;20440;-77
2024/04/09 13:54:21;;;;;;;0.63;0.25;;;10.70;71.80;;;;;;4253375;27;20322;-79
2024/04/09 13:56:22;;;;;;;2.03;0.50;;;10.80;71.10;;;;;;4257169;27;20444;-80
2024/04/09 13:58:25;;;;;;;1.45;0.30;;;10.90;71.20;;;;;;4257079;27;20042;-77
2024/04/09 14:00:26;;;;;;;2.75;0.85;;;11.00;71.10;;;;;;4257173;27;20020;-76
2024/04/09 14:02:30;;;;;;;2.55;0.68;;;11.00;69.50;;;;;;4257199;27;20444;-76
2024/04/09 14:04:33;;;;;;;4.13;0.40;;;10.90;69.50;;;;;;4257114;27;20005;-79
2024/04/09 14:06:37;;;;;;;0.60;0.25;;;10.80;69.30;;;;;;4257022;27;20084;-77
2024/04/09 14:08:38;;;;;;;2.42;0.50;;;10.70;70.00;;;;;;4256936;27;20012;-76
2024/04/09 14:10:43;;;;;;;1.63;0.30;;;10.80;70.40;;;;;;4257467;27;20009;-79
2024/04/09 14:12:44;;;;;;;7.87;3.13;;;10.80;69.40;;;;;;4257505;27;20005;-78
2024/04/09 14:14:48;;;;;;;3.70;1.30;;;10.80;70.00;;;;;;4259168;27;20028;-78
2024/04/09 14:16:49;;;;;;;2.33;0.70;;;10.80;69.80;;;;;;4230732;28;20432;-76
2024/04/09 14:18:52;;;;;;;0.82;0.35;;;10.80;69.40;;;;;;4230657;28;20017;-77
2024/04/09 14:20:58;;;;;;;0.75;0.40;;;10.90;68.80;;;;;;4231318;28;20006;-78
2024/04/09 14:23:01;;;;;;;1.98;0.40;;;10.90;68.60;;;;;;4254557;27;20029;-77
2024/04/09 14:25:05;;;;;;;1.10;0.30;;;10.90;69.00;;;;;;4257548;27;20009;-80
2024/04/09 14:27:08;;;;;;;1.77;0.40;;;11.00;68.90;;;;;;4257022;27;20016;-77
2024/04/09 14:29:10;;;;;;;1.70;0.30;;;11.00;68.70;;;;;;4257293;27;20016;-79
2024/04/09 14:31:17;;;;;;;0.88;0.40;;;11.10;68.70;;;;;;4254552;27;20032;-77
2024/04/09 14:33:18;;;;;;;2.50;0.57;;;11.10;69.60;;;;;;4257350;27;20408;-79
2024/04/09 14:35:21;;;;;;;1.08;0.40;;;11.10;69.60;;;;;;4259297;27;20021;-76
2024/04/09 14:37:25;;;;;;;1.23;0.40;;;11.00;70.10;;;;;;4257124;27;20451;-78
2024/04/09 14:39:29;;;;;;;1.77;0.40;;;11.00;71.00;;;;;;4257308;27;20020;-78
2024/04/09 14:41:30;;;;;;;1.48;0.40;;;11.00;71.80;;;;;;4271308;27;20008;-78
2024/04/09 14:43:33;;;;;;;0.95;0.30;;;10.90;73.10;;;;;;4270471;27;20021;-77
2024/04/09 14:45:34;;;;;;;1.52;0.52;;;10.80;74.60;;;;;;4243274;27;20010;-78
2024/04/09 14:47:38;;;;;;;4.95;1.73;;;10.90;75.10;;;;;;4237782;27;20010;-79
2024/04/09 14:49:39;;;;;;;3.95;1.92;;;10.90;75.60;;;;;;4283936;27;20566;-78
2024/04/09 14:51:43;;;;;;;2.30;0.88;;;11.00;75.90;;;;;;4257539;27;20461;-76
2024/04/09 14:53:46;;;;;;;1.45;0.60;;;11.00;76.10;;;;;;4237673;27;20009;-78
2024/04/09 14:55:50;;;;;;;1.33;0.50;;;11.10;76.10;;;;;;4275857;27;20013;-79
2024/04/09 14:57:51;;;;;;;3.50;0.52;;;11.00;75.60;;;;;;4254702;27;20009;-77
2024/04/09 14:59:54;;;;;;;1.35;0.43;;;11.10;75.10;;;;;;4260211;27;20016;-79
2024/04/09 15:01:55;;;;;;;2.83;0.50;;;11.10;74.40;;;;;;4276810;27;20324;-78
2024/04/09 15:03:59;;;;;;;3.30;0.50;;;11.00;72.70;;;;;;4230238;27;20041;-77
2024/04/09 15:06:00;;;;;;;3.78;0.60;;;11.10;72.60;;;;;;4230089;27;20440;-78
2024/04/09 15:08:05;;;;;;;1.00;0.38;;;11.10;72.30;;;;;;4228764;27;20359;-79
2024/04/09 15:10:12;;;;;;;1.15;0.40;;;11.10;72.10;;;;;;4230009;27;20021;-78
2024/04/09 15:12:16;;;;;;;2.72;0.57;;;10.90;72.30;;;;;;4239088;27;20706;-77
2024/04/09 15:14:17;;;;;;;1.73;0.55;;;10.90;73.10;;;;;;4283111;27;20067;-78
2024/04/09 15:16:23;;;;;;;2.00;0.40;;;11.10;73.40;;;;;;4283936;27;20008;-79
2024/04/09 15:18:25;;;;;;;1.83;0.47;;;11.20;72.70;;;;;;4288337;27;20007;-77
2024/04/09 15:20:28;;;;;;;1.95;0.50;;;11.20;71.70;;;;;;4266009;27;20045;-78
2024/04/09 15:22:29;;;;;;;1.55;0.50;;;11.10;71.80;;;;;;4260921;27;20092;-78
2024/04/09 15:24:35;;;;;;;1.15;0.40;;;11.10;70.30;;;;;;4260659;27;20019;-79
2024/04/09 15:26:40;;;;;;;2.42;0.60;;;11.10;70.10;;;;;;4259398;27;20009;-76
2024/04/09 15:28:46;;;;;;;2.72;0.50;;;11.10;70.40;;;;;;4260383;27;20054;-77
2024/04/09 15:30:51;;;;;;;1.38;0.50;;;11.10;70.40;;;;;;4236983;27;20005;-78
2024/04/09 15:32:55;;;;;;;2.08;0.70;;;11.20;70.70;;;;;;4248677;27;20028;-79
2024/04/09 15:34:56;;;;;;;2.28;0.55;;;11.20;70.70;;;;;;4254645;27;20023;-79
2024/04/09 15:37:02;;;;;;;1.58;0.50;;;11.20;70.00;;;;;;4250482;27;20014;-78
2024/04/09 15:39:05;;;;;;;1.58;0.57;;;11.20;69.70;;;;;;4259905;27;20025;-77
2024/04/09 15:41:08;;;;;;;1.92;0.52;;;11.20;69.60;;;;;;4246782;27;20009;-76